sensor_id;sensor_type;location;lat;lon;timestamp;temperature;humidity
52397;DHT22;38322;53.108;6.308;2024-03-23T06:03:01;4.20;99.90
52397;DHT22;38322;53.108;6.308;2024-03-23T06:05:27;4.20;99.90
52397;DHT22;38322;53.108;6.308;2024-03-23T06:07:53;4.20;99.90
52397;DHT22;38322;53.108;6.308;2024-03-23T06:10:19;4.20;99.90
52397;DHT22;38322;53.108;6.308;2024-03-23T06:12:46;4.20;99.90
52397;DHT22;38322;53.108;6.308;2024-03-23T06:15:12;4.30;99.90
52397;DHT22;38322;53.108;6.308;2024-03-23T06:17:38;4.30;99.90
52397;DHT22;38322;53.108;6.308;2024-03-23T06:20:05;4.20;99.90
52397;DHT22;38322;53.108;6.308;2024-03-23T06:22:32;4.30;99.90
52397;DHT22;38322;53.108;6.308;2024-03-23T06:24:59;4.40;99.90
52397;DHT22;38322;53.108;6.308;2024-03-23T06:27:25;4.40;99.90
52397;DHT22;38322;53.108;6.308;2024-03-23T06:29:51;4.40;99.90
52397;DHT22;38322;53.108;6.308;2024-03-23T06:32:17;4.40;99.90
52397;DHT22;38322;53.108;6.308;2024-03-23T06:34:43;4.40;99.90
52397;DHT22;38322;53.108;6.308;2024-03-23T06:37:11;4.40;99.90
52397;DHT22;38322;53.108;6.308;2024-03-23T06:39:37;4.40;99.90
52397;DHT22;38322;53.108;6.308;2024-03-23T06:42:04;4.40;99.90
52397;DHT22;38322;53.108;6.308;2024-03-23T06:44:30;4.50;99.90
52397;DHT22;38322;53.108;6.308;2024-03-23T06:46:57;4.60;99.90
52397;DHT22;38322;53.108;6.308;2024-03-23T06:49:23;4.80;99.90
52397;DHT22;38322;53.108;6.308;2024-03-23T06:51:49;5.00;99.90
52397;DHT22;38322;53.108;6.308;2024-03-23T06:54:17;5.20;99.90
52397;DHT22;38322;53.108;6.308;2024-03-23T06:56:44;5.20;99.90
52397;DHT22;38322;53.108;6.308;2024-03-23T06:59:10;5.20;99.90
52397;DHT22;38322;53.108;6.308;2024-03-23T07:01:36;5.10;99.90
52397;DHT22;38322;53.108;6.308;2024-03-23T07:04:02;5.10;99.90
52397;DHT22;38322;53.108;6.308;2024-03-23T07:06:30;5.10;99.90
52397;DHT22;38322;53.108;6.308;2024-03-23T07:08:56;5.20;99.90
52397;DHT22;38322;53.108;6.308;2024-03-23T07:11:22;5.50;99.90
52397;DHT22;38322;53.108;6.308;2024-03-23T07:13:50;5.70;99.90
52397;DHT22;38322;53.108;6.308;2024-03-23T07:16:16;5.70;99.90
52397;DHT22;38322;53.108;6.308;2024-03-23T07:18:42;5.60;99.90
52397;DHT22;38322;53.108;6.308;2024-03-23T07:21:08;5.70;99.90
52397;DHT22;38322;53.108;6.308;2024-03-23T07:23:34;5.90;99.90
52397;DHT22;38322;53.108;6.308;2024-03-23T07:26:02;6.20;99.90
52397;DHT22;38322;53.108;6.308;2024-03-23T07:28:28;6.20;99.90
52397;DHT22;38322;53.108;6.308;2024-03-23T07:31:05;6.20;99.90
52397;DHT22;38322;53.108;6.308;2024-03-23T07:33:31;6.10;99.90
52397;DHT22;38322;53.108;6.308;2024-03-23T07:35:58;6.00;99.90
52397;DHT22;38322;53.108;6.308;2024-03-23T07:38:26;5.80;99.90
52397;DHT22;38322;53.108;6.308;2024-03-23T07:40:52;5.80;99.90
52397;DHT22;38322;53.108;6.308;2024-03-23T07:43:21;5.70;99.90
52397;DHT22;38322;53.108;6.308;2024-03-23T07:45:53;5.60;99.90
52397;DHT22;38322;53.108;6.308;2024-03-23T07:48:21;5.70;99.90
52397;DHT22;38322;53.108;6.308;2024-03-23T07:53:25;5.70;99.90
52397;DHT22;38322;53.108;6.308;2024-03-23T07:55:54;5.80;99.90
52397;DHT22;38322;53.108;6.308;2024-03-23T07:58:22;6.00;99.90
52397;DHT22;38322;53.108;6.308;2024-03-23T08:00:48;6.20;99.90
52397;DHT22;38322;53.108;6.308;2024-03-23T08:03:14;6.40;99.90
52397;DHT22;38322;53.108;6.308;2024-03-23T08:05:40;6.50;99.90
52397;DHT22;38322;53.108;6.308;2024-03-23T08:08:06;6.40;99.90
52397;DHT22;38322;53.108;6.308;2024-03-23T08:10:32;6.40;99.90
52397;DHT22;38322;53.108;6.308;2024-03-23T08:12:57;6.50;99.90
52397;DHT22;38322;53.108;6.308;2024-03-23T08:15:23;6.50;99.90
52397;DHT22;38322;53.108;6.308;2024-03-23T08:17:50;6.60;99.90
52397;DHT22;38322;53.108;6.308;2024-03-23T08:20:16;6.60;99.90
52397;DHT22;38322;53.108;6.308;2024-03-23T08:22:41;6.60;99.90
52397;DHT22;38322;53.108;6.308;2024-03-23T08:25:07;6.80;99.90
52397;DHT22;38322;53.108;6.308;2024-03-23T08:27:33;6.90;99.90
52397;DHT22;38322;53.108;6.308;2024-03-23T08:29:59;7.00;99.90
52397;DHT22;38322;53.108;6.308;2024-03-23T08:32:25;7.10;99.90
52397;DHT22;38322;53.108;6.308;2024-03-23T08:34:51;7.20;99.90
52397;DHT22;38322;53.108;6.308;2024-03-23T08:37:16;7.30;99.90
52397;DHT22;38322;53.108;6.308;2024-03-23T08:39:43;7.40;99.90
52397;DHT22;38322;53.108;6.308;2024-03-23T08:42:09;7.50;99.90
52397;DHT22;38322;53.108;6.308;2024-03-23T08:44:35;7.80;99.90
52397;DHT22;38322;53.108;6.308;2024-03-23T08:47:01;8.10;99.90
52397;DHT22;38322;53.108;6.308;2024-03-23T08:49:27;8.40;99.90
52397;DHT22;38322;53.108;6.308;2024-03-23T08:51:53;8.60;99.90
52397;DHT22;38322;53.108;6.308;2024-03-23T08:54:20;8.60;99.90
52397;DHT22;38322;53.108;6.308;2024-03-23T08:56:47;8.50;99.90
52397;DHT22;38322;53.108;6.308;2024-03-23T08:59:13;8.20;99.90
52397;DHT22;38322;53.108;6.308;2024-03-23T09:01:39;8.00;99.90
52397;DHT22;38322;53.108;6.308;2024-03-23T09:04:05;7.80;99.90
52397;DHT22;38322;53.108;6.308;2024-03-23T09:06:31;7.60;99.90
52397;DHT22;38322;53.108;6.308;2024-03-23T09:08:57;7.60;99.90
52397;DHT22;38322;53.108;6.308;2024-03-23T09:11:23;7.70;99.90
52397;DHT22;38322;53.108;6.308;2024-03-23T09:13:49;7.70;99.90
52397;DHT22;38322;53.108;6.308;2024-03-23T09:16:15;7.60;99.90
52397;DHT22;38322;53.108;6.308;2024-03-23T09:18:41;7.60;99.90
52397;DHT22;38322;53.108;6.308;2024-03-23T09:21:12;7.60;99.90
52397;DHT22;38322;53.108;6.308;2024-03-23T09:23:42;8.00;99.90
52397;DHT22;38322;53.108;6.308;2024-03-23T09:26:08;8.40;99.90
52397;DHT22;38322;53.108;6.308;2024-03-23T09:28:34;8.90;99.90
52397;DHT22;38322;53.108;6.308;2024-03-23T09:31:05;9.20;99.90
52397;DHT22;38322;53.108;6.308;2024-03-23T09:33:32;9.00;99.90
52397;DHT22;38322;53.108;6.308;2024-03-23T09:36:04;8.70;99.90
52397;DHT22;38322;53.108;6.308;2024-03-23T09:38:30;8.30;99.90
52397;DHT22;38322;53.108;6.308;2024-03-23T09:40:57;8.00;99.90
52397;DHT22;38322;53.108;6.308;2024-03-23T09:43:23;8.00;99.90
52397;DHT22;38322;53.108;6.308;2024-03-23T09:45:49;8.00;99.90
52397;DHT22;38322;53.108;6.308;2024-03-23T09:48:16;8.00;99.90
52397;DHT22;38322;53.108;6.308;2024-03-23T09:50:43;7.80;99.90
52397;DHT22;38322;53.108;6.308;2024-03-23T09:53:11;7.60;99.90
52397;DHT22;38322;53.108;6.308;2024-03-23T09:55:37;7.40;99.90
52397;DHT22;38322;53.108;6.308;2024-03-23T09:58:04;7.20;99.90
52397;DHT22;38322;53.108;6.308;2024-03-23T10:00:34;7.10;99.90
52397;DHT22;38322;53.108;6.308;2024-03-23T10:03:01;7.30;99.90
52397;DHT22;38322;53.108;6.308;2024-03-23T10:05:28;7.50;99.90
52397;DHT22;38322;53.108;6.308;2024-03-23T10:07:55;7.80;99.90
52397;DHT22;38322;53.108;6.308;2024-03-23T10:10:21;8.00;99.90
52397;DHT22;38322;53.108;6.308;2024-03-23T10:12:48;8.30;99.90
52397;DHT22;38322;53.108;6.308;2024-03-23T10:15:20;8.50;99.90
52397;DHT22;38322;53.108;6.308;2024-03-23T10:17:46;8.90;99.90
52397;DHT22;38322;53.108;6.308;2024-03-23T10:20:12;9.00;99.90
52397;DHT22;38322;53.108;6.308;2024-03-23T10:22:39;9.10;99.90
52397;DHT22;38322;53.108;6.308;2024-03-23T10:25:09;9.30;99.90
52397;DHT22;38322;53.108;6.308;2024-03-23T10:27:35;9.60;99.90
52397;DHT22;38322;53.108;6.308;2024-03-23T10:30:11;9.60;99.90
52397;DHT22;38322;53.108;6.308;2024-03-23T10:32:37;9.50;99.90
52397;DHT22;38322;53.108;6.308;2024-03-23T10:35:16;9.20;99.90
52397;DHT22;38322;53.108;6.308;2024-03-23T10:37:44;9.10;99.90
52397;DHT22;38322;53.108;6.308;2024-03-23T10:40:13;8.90;99.90
52397;DHT22;38322;53.108;6.308;2024-03-23T10:42:39;8.80;99.90
52397;DHT22;38322;53.108;6.308;2024-03-23T10:45:06;8.70;99.90
52397;DHT22;38322;53.108;6.308;2024-03-23T10:47:34;8.50;99.90
52397;DHT22;38322;53.108;6.308;2024-03-23T10:50:01;8.10;99.90
52397;DHT22;38322;53.108;6.308;2024-03-23T10:52:27;7.80;99.90
52397;DHT22;38322;53.108;6.308;2024-03-23T10:54:53;7.70;99.90
52397;DHT22;38322;53.108;6.308;2024-03-23T10:57:23;7.50;99.90
52397;DHT22;38322;53.108;6.308;2024-03-23T10:59:52;7.40;99.90
52397;DHT22;38322;53.108;6.308;2024-03-23T11:02:20;7.30;99.90
52397;DHT22;38322;53.108;6.308;2024-03-23T11:04:46;7.20;99.90
52397;DHT22;38322;53.108;6.308;2024-03-23T11:09:51;7.10;99.90
52397;DHT22;38322;53.108;6.308;2024-03-23T11:15:03;7.60;99.90
52397;DHT22;38322;53.108;6.308;2024-03-23T11:17:30;7.50;99.90
52397;DHT22;38322;53.108;6.308;2024-03-23T11:19:58;7.40;99.90
52397;DHT22;38322;53.108;6.308;2024-03-23T11:22:42;7.40;99.90
52397;DHT22;38322;53.108;6.308;2024-03-23T11:25:16;7.50;99.90
52397;DHT22;38322;53.108;6.308;2024-03-23T11:27:44;7.60;99.90
52397;DHT22;38322;53.108;6.308;2024-03-23T11:30:16;7.70;99.90
52397;DHT22;38322;53.108;6.308;2024-03-23T11:32:43;7.60;99.90
52397;DHT22;38322;53.108;6.308;2024-03-23T11:35:09;7.40;99.90
52397;DHT22;38322;53.108;6.308;2024-03-23T11:37:36;7.40;99.90
52397;DHT22;38322;53.108;6.308;2024-03-23T11:40:21;7.40;99.90
52397;DHT22;38322;53.108;6.308;2024-03-23T11:42:47;7.40;99.90
52397;DHT22;38322;53.108;6.308;2024-03-23T11:45:21;7.20;99.90
52397;DHT22;38322;53.108;6.308;2024-03-23T11:47:46;6.90;99.90
52397;DHT22;38322;53.108;6.308;2024-03-23T11:50:19;6.50;99.90
52397;DHT22;38322;53.108;6.308;2024-03-23T11:52:45;6.30;99.90
52397;DHT22;38322;53.108;6.308;2024-03-23T11:55:11;6.20;99.90
52397;DHT22;38322;53.108;6.308;2024-03-23T11:57:37;6.10;99.90
52397;DHT22;38322;53.108;6.308;2024-03-23T12:00:21;6.10;99.90
52397;DHT22;38322;53.108;6.308;2024-03-23T12:02:47;6.30;99.90
52397;DHT22;38322;53.108;6.308;2024-03-23T12:05:15;6.40;99.90
52397;DHT22;38322;53.108;6.308;2024-03-23T12:07:41;6.70;99.90
52397;DHT22;38322;53.108;6.308;2024-03-23T12:10:07;6.90;99.90
52397;DHT22;38322;53.108;6.308;2024-03-23T12:12:33;6.90;99.90
52397;DHT22;38322;53.108;6.308;2024-03-23T12:15:04;6.80;99.90
52397;DHT22;38322;53.108;6.308;2024-03-23T12:17:31;6.60;99.90
52397;DHT22;38322;53.108;6.308;2024-03-23T12:19:57;6.40;99.90
52397;DHT22;38322;53.108;6.308;2024-03-23T12:22:24;6.40;99.90
52397;DHT22;38322;53.108;6.308;2024-03-23T12:24:50;6.40;99.90
52397;DHT22;38322;53.108;6.308;2024-03-23T12:27:16;6.60;99.90
52397;DHT22;38322;53.108;6.308;2024-03-23T12:29:42;6.80;99.90
52397;DHT22;38322;53.108;6.308;2024-03-23T12:32:13;6.80;99.90
52397;DHT22;38322;53.108;6.308;2024-03-23T12:34:39;6.60;99.90
52397;DHT22;38322;53.108;6.308;2024-03-23T12:37:05;6.40;99.90
52397;DHT22;38322;53.108;6.308;2024-03-23T12:39:32;6.50;99.90
52397;DHT22;38322;53.108;6.308;2024-03-23T12:41:58;6.40;99.90
52397;DHT22;38322;53.108;6.308;2024-03-23T12:44:24;6.50;99.90
52397;DHT22;38322;53.108;6.308;2024-03-23T12:46:50;6.50;99.90
52397;DHT22;38322;53.108;6.308;2024-03-23T12:49:16;6.60;99.90
52397;DHT22;38322;53.108;6.308;2024-03-23T12:51:53;6.60;99.90
52397;DHT22;38322;53.108;6.308;2024-03-23T12:54:20;6.60;99.90
52397;DHT22;38322;53.108;6.308;2024-03-23T12:56:46;6.70;99.90
52397;DHT22;38322;53.108;6.308;2024-03-23T12:59:12;6.80;99.90
52397;DHT22;38322;53.108;6.308;2024-03-23T13:01:39;6.90;99.90
52397;DHT22;38322;53.108;6.308;2024-03-23T13:04:05;6.80;99.90
52397;DHT22;38322;53.108;6.308;2024-03-23T13:06:30;6.80;99.90
52397;DHT22;38322;53.108;6.308;2024-03-23T13:09:01;6.70;99.90
52397;DHT22;38322;53.108;6.308;2024-03-23T13:11:29;6.70;99.90
52397;DHT22;38322;53.108;6.308;2024-03-23T13:13:55;6.90;99.90
52397;DHT22;38322;53.108;6.308;2024-03-23T13:16:21;7.20;99.90
52397;DHT22;38322;53.108;6.308;2024-03-23T13:18:47;7.50;99.90
52397;DHT22;38322;53.108;6.308;2024-03-23T13:21:13;7.80;99.90
52397;DHT22;38322;53.108;6.308;2024-03-23T13:23:38;8.00;99.90
52397;DHT22;38322;53.108;6.308;2024-03-23T13:26:07;8.20;99.90
52397;DHT22;38322;53.108;6.308;2024-03-23T13:28:33;8.40;99.90
52397;DHT22;38322;53.108;6.308;2024-03-23T13:31:01;8.70;99.90
52397;DHT22;38322;53.108;6.308;2024-03-23T13:33:29;8.60;99.90
52397;DHT22;38322;53.108;6.308;2024-03-23T13:35:58;8.40;99.90
52397;DHT22;38322;53.108;6.308;2024-03-23T13:38:24;8.10;99.90
52397;DHT22;38322;53.108;6.308;2024-03-23T13:40:57;7.90;99.90
52397;DHT22;38322;53.108;6.308;2024-03-23T13:43:24;7.60;99.90
52397;DHT22;38322;53.108;6.308;2024-03-23T13:45:54;7.40;99.90
52397;DHT22;38322;53.108;6.308;2024-03-23T13:48:22;7.50;99.90
52397;DHT22;38322;53.108;6.308;2024-03-23T13:50:57;7.60;99.90
52397;DHT22;38322;53.108;6.308;2024-03-23T13:53:23;7.70;99.90
52397;DHT22;38322;53.108;6.308;2024-03-23T13:55:49;8.00;99.90
52397;DHT22;38322;53.108;6.308;2024-03-23T13:58:15;8.20;99.90
52397;DHT22;38322;53.108;6.308;2024-03-23T14:00:42;8.40;99.90
52397;DHT22;38322;53.108;6.308;2024-03-23T14:03:10;8.30;99.90
52397;DHT22;38322;53.108;6.308;2024-03-23T14:05:37;8.10;99.90
52397;DHT22;38322;53.108;6.308;2024-03-23T14:08:05;7.90;99.90
52397;DHT22;38322;53.108;6.308;2024-03-23T14:10:31;7.70;99.90
52397;DHT22;38322;53.108;6.308;2024-03-23T14:12:57;7.60;99.90
52397;DHT22;38322;53.108;6.308;2024-03-23T14:15:26;7.60;99.90
52397;DHT22;38322;53.108;6.308;2024-03-23T14:17:53;7.70;99.90
52397;DHT22;38322;53.108;6.308;2024-03-23T14:20:20;7.90;99.90
52397;DHT22;38322;53.108;6.308;2024-03-23T14:22:47;8.10;99.90
52397;DHT22;38322;53.108;6.308;2024-03-23T14:25:13;8.20;99.90
52397;DHT22;38322;53.108;6.308;2024-03-23T14:27:39;8.40;99.90
52397;DHT22;38322;53.108;6.308;2024-03-23T14:30:05;8.40;99.90
52397;DHT22;38322;53.108;6.308;2024-03-23T14:32:31;8.50;99.90
52397;DHT22;38322;53.108;6.308;2024-03-23T14:35:01;8.70;99.90
52397;DHT22;38322;53.108;6.308;2024-03-23T14:37:27;8.70;99.90
52397;DHT22;38322;53.108;6.308;2024-03-23T14:39:53;8.70;99.90
52397;DHT22;38322;53.108;6.308;2024-03-23T14:42:20;8.40;99.90
52397;DHT22;38322;53.108;6.308;2024-03-23T14:44:46;8.30;99.90
52397;DHT22;38322;53.108;6.308;2024-03-23T14:47:13;8.10;99.90
52397;DHT22;38322;53.108;6.308;2024-03-23T14:49:39;8.00;99.90
52397;DHT22;38322;53.108;6.308;2024-03-23T14:52:05;8.10;99.90
52397;DHT22;38322;53.108;6.308;2024-03-23T14:54:31;8.10;99.90
52397;DHT22;38322;53.108;6.308;2024-03-23T14:56:56;8.00;99.90
52397;DHT22;38322;53.108;6.308;2024-03-23T14:59:24;8.00;99.90
52397;DHT22;38322;53.108;6.308;2024-03-23T15:01:50;8.20;99.90
52397;DHT22;38322;53.108;6.308;2024-03-23T15:04:16;8.20;99.90
52397;DHT22;38322;53.108;6.308;2024-03-23T15:06:42;8.30;99.90
52397;DHT22;38322;53.108;6.308;2024-03-23T15:09:08;8.30;99.90
52397;DHT22;38322;53.108;6.308;2024-03-23T15:11:37;8.20;99.90
52397;DHT22;38322;53.108;6.308;2024-03-23T15:14:03;8.30;99.90
52397;DHT22;38322;53.108;6.308;2024-03-23T15:16:29;8.10;99.90
52397;DHT22;38322;53.108;6.308;2024-03-23T15:18:55;7.80;99.90
52397;DHT22;38322;53.108;6.308;2024-03-23T15:21:21;7.80;99.90
52397;DHT22;38322;53.108;6.308;2024-03-23T15:23:47;7.60;99.90
52397;DHT22;38322;53.108;6.308;2024-03-23T15:26:13;7.50;99.90
52397;DHT22;38322;53.108;6.308;2024-03-23T15:28:39;7.60;99.90
52397;DHT22;38322;53.108;6.308;2024-03-23T15:31:24;7.50;99.90
52397;DHT22;38322;53.108;6.308;2024-03-23T15:33:50;7.60;99.90
52397;DHT22;38322;53.108;6.308;2024-03-23T15:36:16;7.60;99.90
52397;DHT22;38322;53.108;6.308;2024-03-23T15:38:43;7.60;99.90
52397;DHT22;38322;53.108;6.308;2024-03-23T15:41:09;7.50;99.90
52397;DHT22;38322;53.108;6.308;2024-03-23T15:43:35;7.40;99.90
52397;DHT22;38322;53.108;6.308;2024-03-23T15:46:03;7.40;99.90
52397;DHT22;38322;53.108;6.308;2024-03-23T15:48:30;7.20;99.90
52397;DHT22;38322;53.108;6.308;2024-03-23T15:50:57;7.20;99.90
52397;DHT22;38322;53.108;6.308;2024-03-23T15:53:24;7.10;99.90
52397;DHT22;38322;53.108;6.308;2024-03-23T15:55:54;7.10;99.90
52397;DHT22;38322;53.108;6.308;2024-03-23T15:58:21;7.10;99.90
52397;DHT22;38322;53.108;6.308;2024-03-23T16:00:58;7.20;99.90
52397;DHT22;38322;53.108;6.308;2024-03-23T16:03:25;7.30;99.90
52397;DHT22;38322;53.108;6.308;2024-03-23T16:05:54;7.30;99.90
52397;DHT22;38322;53.108;6.308;2024-03-23T16:08:20;7.30;99.90
52397;DHT22;38322;53.108;6.308;2024-03-23T16:10:46;7.40;99.90
52397;DHT22;38322;53.108;6.308;2024-03-23T16:13:12;7.40;99.90
52397;DHT22;38322;53.108;6.308;2024-03-23T16:15:38;7.30;99.90
52397;DHT22;38322;53.108;6.308;2024-03-23T16:18:03;7.30;99.90
52397;DHT22;38322;53.108;6.308;2024-03-23T16:20:29;7.30;99.90
52397;DHT22;38322;53.108;6.308;2024-03-23T16:22:56;7.30;99.90
52397;DHT22;38322;53.108;6.308;2024-03-23T16:25:22;7.30;99.90
52397;DHT22;38322;53.108;6.308;2024-03-23T16:27:49;7.30;99.90
52397;DHT22;38322;53.108;6.308;2024-03-23T16:30:15;7.20;99.90
52397;DHT22;38322;53.108;6.308;2024-03-23T16:32:41;7.20;99.90
52397;DHT22;38322;53.108;6.308;2024-03-23T16:35:07;7.20;99.90
52397;DHT22;38322;53.108;6.308;2024-03-23T16:37:35;7.10;99.90
52397;DHT22;38322;53.108;6.308;2024-03-23T16:40:02;7.10;99.90
52397;DHT22;38322;53.108;6.308;2024-03-23T16:42:28;7.00;99.90
52397;DHT22;38322;53.108;6.308;2024-03-23T16:44:54;7.00;99.90
52397;DHT22;38322;53.108;6.308;2024-03-23T16:47:20;6.90;99.90
52397;DHT22;38322;53.108;6.308;2024-03-23T16:49:46;6.90;99.90
52397;DHT22;38322;53.108;6.308;2024-03-23T16:52:11;6.80;99.90
52397;DHT22;38322;53.108;6.308;2024-03-23T16:54:37;6.80;99.90
52397;DHT22;38322;53.108;6.308;2024-03-23T16:57:03;6.70;99.90
52397;DHT22;38322;53.108;6.308;2024-03-23T16:59:29;6.70;99.90
52397;DHT22;38322;53.108;6.308;2024-03-23T17:01:55;6.70;99.90
52397;DHT22;38322;53.108;6.308;2024-03-23T17:04:22;6.60;99.90
52397;DHT22;38322;53.108;6.308;2024-03-23T17:06:49;6.50;99.90
52397;DHT22;38322;53.108;6.308;2024-03-23T17:09:15;6.50;99.90
52397;DHT22;38322;53.108;6.308;2024-03-23T17:11:42;6.50;99.90
52397;DHT22;38322;53.108;6.308;2024-03-23T17:14:09;6.50;99.90
52397;DHT22;38322;53.108;6.308;2024-03-23T17:16:35;6.40;99.90
52397;DHT22;38322;53.108;6.308;2024-03-23T17:19:01;6.40;99.90
52397;DHT22;38322;53.108;6.308;2024-03-23T17:21:27;6.30;99.90
52397;DHT22;38322;53.108;6.308;2024-03-23T17:23:54;6.20;99.90
52397;DHT22;38322;53.108;6.308;2024-03-23T17:26:24;6.20;99.90
52397;DHT22;38322;53.108;6.308;2024-03-23T17:28:50;6.20;99.90
52397;DHT22;38322;53.108;6.308;2024-03-23T17:31:17;6.10;99.90
52397;DHT22;38322;53.108;6.308;2024-03-23T17:33:43;6.10;99.90
52397;DHT22;38322;53.108;6.308;2024-03-23T17:36:09;6.10;99.90
52397;DHT22;38322;53.108;6.308;2024-03-23T17:38:35;6.10;99.90
52397;DHT22;38322;53.108;6.308;2024-03-23T17:41:04;6.10;99.90
52397;DHT22;38322;53.108;6.308;2024-03-23T17:43:30;6.00;99.90
52397;DHT22;38322;53.108;6.308;2024-03-23T17:45:57;6.00;99.90
52397;DHT22;38322;53.108;6.308;2024-03-23T17:48:23;5.90;99.90
52397;DHT22;38322;53.108;6.308;2024-03-23T17:50:59;5.80;99.90
52397;DHT22;38322;53.108;6.308;2024-03-23T17:53:25;5.80;99.90
52397;DHT22;38322;53.108;6.308;2024-03-23T17:55:51;5.80;99.90
52397;DHT22;38322;53.108;6.308;2024-03-23T17:58:16;5.70;99.90
52397;DHT22;38322;53.108;6.308;2024-03-23T18:00:42;5.60;99.90
52397;DHT22;38322;53.108;6.308;2024-03-23T18:03:08;5.60;99.90
52397;DHT22;38322;53.108;6.308;2024-03-23T18:05:34;5.50;99.90
52397;DHT22;38322;53.108;6.308;2024-03-23T18:08:00;5.50;99.90
52397;DHT22;38322;53.108;6.308;2024-03-23T18:10:26;5.40;99.90
52397;DHT22;38322;53.108;6.308;2024-03-23T18:12:52;5.40;99.90
52397;DHT22;38322;53.108;6.308;2024-03-23T18:15:18;5.40;99.90
52397;DHT22;38322;53.108;6.308;2024-03-23T18:17:43;5.40;99.90
52397;DHT22;38322;53.108;6.308;2024-03-23T18:20:09;5.40;99.90
52397;DHT22;38322;53.108;6.308;2024-03-23T18:22:35;5.40;99.90
52397;DHT22;38322;53.108;6.308;2024-03-23T18:25:01;5.40;99.90
52397;DHT22;38322;53.108;6.308;2024-03-23T18:27:27;5.30;99.90
52397;DHT22;38322;53.108;6.308;2024-03-23T18:29:54;5.30;99.90
52397;DHT22;38322;53.108;6.308;2024-03-23T18:32:20;5.20;99.90
52397;DHT22;38322;53.108;6.308;2024-03-23T18:34:46;5.10;99.90
52397;DHT22;38322;53.108;6.308;2024-03-23T18:37:12;5.10;99.90
52397;DHT22;38322;53.108;6.308;2024-03-23T18:39:38;5.10;99.90
52397;DHT22;38322;53.108;6.308;2024-03-23T18:42:04;5.00;99.90
52397;DHT22;38322;53.108;6.308;2024-03-23T18:44:31;5.00;99.90
52397;DHT22;38322;53.108;6.308;2024-03-23T18:46:57;4.90;99.90
52397;DHT22;38322;53.108;6.308;2024-03-23T18:49:23;4.80;99.90
52397;DHT22;38322;53.108;6.308;2024-03-23T18:51:48;4.80;99.90
52397;DHT22;38322;53.108;6.308;2024-03-23T18:54:14;4.70;99.90
52397;DHT22;38322;53.108;6.308;2024-03-23T18:56:40;4.70;99.90
52397;DHT22;38322;53.108;6.308;2024-03-23T18:59:06;4.70;99.90
52397;DHT22;38322;53.108;6.308;2024-03-23T19:01:32;4.70;99.90
52397;DHT22;38322;53.108;6.308;2024-03-23T19:04:00;4.80;99.90
52397;DHT22;38322;53.108;6.308;2024-03-23T19:06:26;4.80;99.90
52397;DHT22;38322;53.108;6.308;2024-03-23T19:08:51;4.90;99.90
52397;DHT22;38322;53.108;6.308;2024-03-23T19:11:17;5.00;99.90
52397;DHT22;38322;53.108;6.308;2024-03-23T19:13:44;4.90;99.90
52397;DHT22;38322;53.108;6.308;2024-03-23T19:16:10;4.80;99.90
52397;DHT22;38322;53.108;6.308;2024-03-23T19:18:36;4.80;99.90
52397;DHT22;38322;53.108;6.308;2024-03-23T19:21:02;4.70;99.90
52397;DHT22;38322;53.108;6.308;2024-03-23T19:23:28;4.70;99.90
52397;DHT22;38322;53.108;6.308;2024-03-23T19:25:56;4.70;99.90
52397;DHT22;38322;53.108;6.308;2024-03-23T19:28:22;4.70;99.90
52397;DHT22;38322;53.108;6.308;2024-03-23T19:30:48;4.70;99.90
52397;DHT22;38322;53.108;6.308;2024-03-23T19:33:14;4.70;99.90
52397;DHT22;38322;53.108;6.308;2024-03-23T19:35:40;4.80;99.90
52397;DHT22;38322;53.108;6.308;2024-03-23T19:38:07;4.70;99.90
52397;DHT22;38322;53.108;6.308;2024-03-23T19:40:33;4.70;99.90
52397;DHT22;38322;53.108;6.308;2024-03-23T19:42:59;4.70;99.90
52397;DHT22;38322;53.108;6.308;2024-03-23T19:45:25;4.70;99.90
52397;DHT22;38322;53.108;6.308;2024-03-23T19:47:51;4.70;99.90
52397;DHT22;38322;53.108;6.308;2024-03-23T19:50:16;4.60;99.90
52397;DHT22;38322;53.108;6.308;2024-03-23T19:52:42;4.60;99.90
52397;DHT22;38322;53.108;6.308;2024-03-23T19:55:08;4.50;99.90
52397;DHT22;38322;53.108;6.308;2024-03-23T19:57:34;4.50;99.90
52397;DHT22;38322;53.108;6.308;2024-03-23T20:00:00;4.40;99.90
52397;DHT22;38322;53.108;6.308;2024-03-23T20:02:26;4.40;99.90
52397;DHT22;38322;53.108;6.308;2024-03-23T20:04:52;4.40;99.90
52397;DHT22;38322;53.108;6.308;2024-03-23T20:07:18;4.40;99.90
52397;DHT22;38322;53.108;6.308;2024-03-23T20:09:44;4.40;99.90
52397;DHT22;38322;53.108;6.308;2024-03-23T20:12:11;4.40;99.90
52397;DHT22;38322;53.108;6.308;2024-03-23T20:14:37;4.40;99.90
52397;DHT22;38322;53.108;6.308;2024-03-23T20:17:04;4.40;99.90
52397;DHT22;38322;53.108;6.308;2024-03-23T20:19:30;4.40;99.90
52397;DHT22;38322;53.108;6.308;2024-03-23T20:21:58;4.40;99.90
52397;DHT22;38322;53.108;6.308;2024-03-23T20:24:25;4.40;99.90
52397;DHT22;38322;53.108;6.308;2024-03-23T20:26:51;4.30;99.90
52397;DHT22;38322;53.108;6.308;2024-03-23T20:29:17;4.40;99.90
52397;DHT22;38322;53.108;6.308;2024-03-23T20:31:43;4.40;99.90
52397;DHT22;38322;53.108;6.308;2024-03-23T20:34:09;4.40;99.90
52397;DHT22;38322;53.108;6.308;2024-03-23T20:36:35;4.40;99.90
52397;DHT22;38322;53.108;6.308;2024-03-23T20:39:01;4.40;99.90
52397;DHT22;38322;53.108;6.308;2024-03-23T20:41:28;4.40;99.90
52397;DHT22;38322;53.108;6.308;2024-03-23T20:43:54;4.40;99.90
52397;DHT22;38322;53.108;6.308;2024-03-23T20:46:20;4.50;99.90
52397;DHT22;38322;53.108;6.308;2024-03-23T20:48:46;4.50;99.90
52397;DHT22;38322;53.108;6.308;2024-03-23T20:51:15;4.50;99.90
52397;DHT22;38322;53.108;6.308;2024-03-23T20:53:41;4.50;99.90
52397;DHT22;38322;53.108;6.308;2024-03-23T20:56:08;4.60;99.90
52397;DHT22;38322;53.108;6.308;2024-03-23T20:58:35;4.60;99.90
